createdAt,value
2017-02-19T00:00:54.677Z,99.99
2017-02-19T00:05:50.998Z,99.99
2017-02-19T00:10:47.214Z,99.99
2017-02-19T00:15:43.689Z,99.99
2017-02-19T00:20:40.162Z,99.48
2017-02-19T00:25:36.469Z,99.39
2017-02-19T00:30:32.842Z,99.20
2017-02-19T00:35:29.276Z,99.99
2017-02-19T00:40:25.354Z,99.99
2017-02-19T00:45:21.779Z,99.99
2017-02-19T00:50:18.308Z,99.99
2017-02-19T00:55:14.452Z,99.99
2017-02-19T01:00:11.531Z,99.99
2017-02-19T01:05:07.221Z,99.99
2017-02-19T01:10:03.411Z,99.99
2017-02-19T01:14:59.577Z,99.99
2017-02-19T01:19:56.154Z,99.99
2017-02-19T01:24:53.167Z,99.99
2017-02-19T01:29:49.538Z,99.99
2017-02-19T01:34:46.388Z,99.99
2017-02-19T01:39:42.550Z,99.99
2017-02-19T01:44:39.059Z,99.99
2017-02-19T01:49:35.289Z,99.99
2017-02-19T01:54:31.620Z,99.99
2017-02-19T01:59:27.984Z,99.99
2017-02-19T02:04:23.830Z,99.99
2017-02-19T02:09:21.301Z,99.99
2017-02-19T02:14:17.583Z,99.99
2017-02-19T02:19:14.006Z,99.99
2017-02-19T02:24:10.346Z,99.99
2017-02-19T02:29:06.701Z,99.99
2017-02-19T02:34:03.109Z,99.99
2017-02-19T02:38:59.502Z,99.99
2017-02-19T02:43:55.959Z,99.99
2017-02-19T02:48:52.215Z,99.99
2017-02-19T02:53:49.162Z,99.99
2017-02-19T02:58:45.492Z,99.20
2017-02-19T03:03:42.018Z,99.58
2017-02-19T03:08:38.410Z,99.15
2017-02-19T03:13:34.821Z,99.58
2017-02-19T03:18:31.210Z,99.58
2017-02-19T03:23:27.611Z,99.58
2017-02-19T03:28:24.753Z,99.20
2017-02-19T03:33:21.584Z,99.77
2017-02-19T03:38:17.908Z,99.39
2017-02-19T03:43:14.119Z,99.86
2017-02-19T03:48:11.753Z,99.48
2017-02-19T03:53:07.780Z,99.48
2017-02-19T03:58:04.554Z,99.43
2017-02-19T04:03:00.996Z,99.99
2017-02-19T04:07:57.676Z,99.99
2017-02-19T04:12:54.255Z,99.99
2017-02-19T04:17:50.657Z,99.99
2017-02-19T04:22:46.970Z,99.99
2017-02-19T04:27:43.424Z,99.99
2017-02-19T04:32:39.601Z,99.99
2017-02-19T04:37:36.200Z,99.99
2017-02-19T04:42:32.698Z,99.99
2017-02-19T04:47:28.931Z,99.99
2017-02-19T04:52:25.306Z,99.99
2017-02-19T04:57:21.983Z,99.99
2017-02-19T05:02:18.430Z,99.99
2017-02-19T05:07:14.848Z,99.99
2017-02-19T05:12:11.524Z,99.99
2017-02-19T05:17:07.741Z,99.99
2017-02-19T05:22:04.054Z,99.99
2017-02-19T05:32:03.449Z,99.99
2017-02-19T05:36:59.644Z,99.99
2017-02-19T05:41:55.831Z,99.99
2017-02-19T05:46:52.122Z,99.99
2017-02-19T05:56:49.933Z,99.99
2017-02-19T06:01:46.104Z,99.99
2017-02-19T06:06:42.455Z,99.99
2017-02-19T06:11:38.950Z,99.99
2017-02-19T06:16:35.286Z,99.99
2017-02-19T06:21:32.320Z,99.99
2017-02-19T06:26:29.841Z,99.99
2017-02-19T06:31:26.166Z,99.99
2017-02-19T06:36:22.565Z,99.99
2017-02-19T06:41:19.138Z,99.99
2017-02-19T06:46:16.173Z,99.99
2017-02-19T06:51:12.657Z,99.99
2017-02-19T06:56:09.623Z,99.99
2017-02-19T07:01:06.004Z,99.99
2017-02-19T07:06:03.063Z,99.99
2017-02-19T07:10:59.430Z,99.99
2017-02-19T07:15:57.128Z,99.99
2017-02-19T07:20:53.466Z,99.99
2017-02-19T07:25:50.036Z,99.99
2017-02-19T07:30:46.722Z,99.99
2017-02-19T07:35:43.196Z,99.99
2017-02-19T07:40:42.235Z,99.99
2017-02-19T07:45:38.164Z,99.99
2017-02-19T07:50:34.631Z,99.99
2017-02-19T07:55:30.917Z,99.99
2017-02-19T08:00:27.316Z,99.99
2017-02-19T08:05:23.788Z,99.99
2017-02-19T08:10:22.891Z,99.87
2017-02-19T08:15:18.779Z,99.77
2017-02-19T08:20:15.335Z,99.11
2017-02-19T08:25:12.322Z,99.49
2017-02-19T08:30:08.469Z,99.20
2017-02-19T08:35:05.046Z,98.44
2017-02-19T08:40:01.686Z,98.63
2017-02-19T08:44:58.167Z,97.78
2017-02-19T08:49:55.380Z,97.21
2017-02-19T08:54:51.504Z,97.40
2017-02-19T08:59:47.642Z,97.59
2017-02-19T09:04:44.138Z,98.11
2017-02-19T09:09:40.854Z,98.40
2017-02-19T09:14:37.392Z,97.36
2017-02-19T09:19:33.428Z,97.36
2017-02-19T09:24:30.201Z,96.97
2017-02-19T09:29:26.791Z,97.07
2017-02-19T09:34:23.049Z,96.69
2017-02-19T09:39:19.628Z,95.93
2017-02-19T09:44:15.847Z,96.50
2017-02-19T09:49:12.573Z,96.45
2017-02-19T09:54:09.555Z,95.79
2017-02-19T09:59:06.224Z,95.22
2017-02-19T10:04:02.785Z,94.74
2017-02-19T10:08:59.240Z,95.89
2017-02-19T10:13:55.863Z,95.51
2017-02-19T10:18:53.474Z,95.31
2017-02-19T10:23:50.166Z,95.03
2017-02-19T10:28:46.823Z,94.51
2017-02-19T10:33:43.314Z,94.60
2017-02-19T10:38:41.916Z,94.98
2017-02-19T10:43:37.771Z,94.89
2017-02-19T10:48:35.096Z,94.56
2017-02-19T10:53:31.374Z,95.79
2017-02-19T10:58:27.829Z,95.98
2017-02-19T11:03:24.303Z,97.41
2017-02-19T11:08:20.389Z,97.69
2017-02-19T11:13:16.610Z,97.60
2017-02-19T11:18:13.174Z,97.88
2017-02-19T11:23:09.658Z,99.68
2017-02-19T11:28:06.520Z,99.99
2017-02-19T11:33:03.246Z,99.99
2017-02-19T11:37:59.844Z,99.99
2017-02-19T11:42:56.395Z,99.99
2017-02-19T11:47:52.714Z,99.99
2017-02-19T11:52:49.103Z,99.99
2017-02-19T11:57:46.875Z,99.99
2017-02-19T12:02:43.385Z,99.99
2017-02-19T12:07:39.875Z,99.99
2017-02-19T12:12:36.301Z,99.99
2017-02-19T12:17:32.819Z,99.99
2017-02-19T12:22:29.318Z,99.99
2017-02-19T12:27:25.830Z,99.99
2017-02-19T12:32:22.249Z,99.99
2017-02-19T12:37:18.506Z,99.99
2017-02-19T12:42:15.816Z,99.99
2017-02-19T12:47:13.418Z,99.99
2017-02-19T12:52:09.462Z,99.99
2017-02-19T12:57:06.592Z,99.99
2017-02-19T13:02:02.793Z,99.99
2017-02-19T13:07:00.273Z,99.99
2017-02-19T13:11:56.450Z,99.99
2017-02-19T13:16:52.844Z,99.99
2017-02-19T13:21:49.452Z,99.99
2017-02-19T13:26:46.165Z,99.99
2017-02-19T13:31:42.630Z,99.99
2017-02-19T13:36:40.165Z,99.99
2017-02-19T13:41:36.346Z,99.99
2017-02-19T13:46:32.319Z,99.99
2017-02-19T13:51:28.695Z,99.99
2017-02-19T13:56:25.151Z,99.99
2017-02-19T14:01:21.905Z,99.99
2017-02-19T14:06:18.673Z,99.99
2017-02-19T14:11:15.231Z,99.99
2017-02-19T14:16:11.660Z,99.99
2017-02-19T14:21:08.186Z,99.99
2017-02-19T14:26:04.540Z,99.99
2017-02-19T14:31:01.870Z,99.99
2017-02-19T14:35:57.928Z,99.99
2017-02-19T14:40:53.974Z,99.99
2017-02-19T14:45:50.293Z,99.99
2017-02-19T14:50:46.682Z,99.99
2017-02-19T14:55:43.423Z,99.99
2017-02-19T15:00:39.726Z,99.99
2017-02-19T15:05:36.383Z,99.99
2017-02-19T15:10:32.699Z,99.99
2017-02-19T15:15:29.122Z,99.99
2017-02-19T15:20:26.335Z,99.99
2017-02-19T15:25:22.637Z,99.99
2017-02-19T15:30:19.084Z,99.99
2017-02-19T15:35:15.580Z,99.99
2017-02-19T15:40:11.961Z,99.99
2017-02-19T15:45:08.328Z,99.99
2017-02-19T15:50:04.696Z,99.99
2017-02-19T15:55:01.377Z,99.99
2017-02-19T15:59:57.894Z,99.99
2017-02-19T16:04:54.240Z,99.99
2017-02-19T16:09:50.732Z,99.99
2017-02-19T16:14:47.298Z,99.99
2017-02-19T16:19:44.182Z,99.99
2017-02-19T16:24:40.651Z,99.99
2017-02-19T16:29:37.030Z,99.99
2017-02-19T16:34:32.982Z,99.99
2017-02-19T16:39:30.000Z,99.99
2017-02-19T16:44:26.804Z,99.99
2017-02-19T16:49:24.330Z,99.99
2017-02-19T16:54:20.500Z,99.99
2017-02-19T16:59:17.942Z,99.99
2017-02-19T17:04:13.991Z,99.99
2017-02-19T17:09:10.856Z,99.99
2017-02-19T17:14:07.184Z,99.99
2017-02-19T17:19:03.937Z,99.99
2017-02-19T17:24:00.347Z,99.99
2017-02-19T17:28:57.202Z,99.99
2017-02-19T17:33:53.651Z,99.99
2017-02-19T17:38:50.626Z,99.99
2017-02-19T17:43:46.941Z,99.99
2017-02-19T17:48:43.162Z,99.99
2017-02-19T17:53:39.445Z,99.99
2017-02-19T17:58:35.807Z,99.99
2017-02-19T18:03:32.260Z,99.99
2017-02-19T18:08:28.971Z,99.99
2017-02-19T18:13:25.313Z,99.99
2017-02-19T18:18:21.863Z,99.99
2017-02-19T18:23:17.959Z,99.99
2017-02-19T18:28:14.294Z,99.99
2017-02-19T18:33:12.451Z,99.99
2017-02-19T18:38:08.493Z,99.99
2017-02-19T18:43:05.769Z,99.99
2017-02-19T18:48:01.963Z,99.99
2017-02-19T18:52:59.125Z,99.99
2017-02-19T18:57:55.251Z,99.99
2017-02-19T19:02:52.049Z,99.99
2017-02-19T19:07:48.516Z,99.99
2017-02-19T19:12:44.554Z,99.99
2017-02-19T19:17:40.994Z,99.99
2017-02-19T19:22:37.553Z,99.99
2017-02-19T19:27:34.225Z,99.99
2017-02-19T19:32:30.701Z,99.99
2017-02-19T19:37:27.086Z,99.99
2017-02-19T19:42:23.862Z,99.99
2017-02-19T19:47:20.328Z,99.99
2017-02-19T19:52:16.808Z,99.99
2017-02-19T19:57:13.913Z,99.99
2017-02-19T20:02:10.373Z,99.99
2017-02-19T20:07:06.906Z,99.99
2017-02-19T20:12:03.277Z,99.99
2017-02-19T20:16:59.669Z,99.99
2017-02-19T20:21:56.155Z,99.99
2017-02-19T20:26:52.769Z,99.99
2017-02-19T20:31:49.000Z,99.99
2017-02-19T20:36:45.378Z,99.99
2017-02-19T20:41:42.117Z,99.99
2017-02-19T20:46:38.563Z,99.99
2017-02-19T20:51:35.026Z,99.99
2017-02-19T20:56:31.420Z,99.99
2017-02-19T21:01:27.701Z,99.99
2017-02-19T21:06:24.105Z,99.99
2017-02-19T21:11:20.741Z,99.99
2017-02-19T21:16:17.569Z,99.99
2017-02-19T21:21:15.079Z,99.99
2017-02-19T21:26:11.126Z,99.99
2017-02-19T21:31:07.680Z,99.99
2017-02-19T21:36:03.989Z,99.99
2017-02-19T21:41:00.350Z,99.99
2017-02-19T21:45:56.891Z,99.99
2017-02-19T21:50:53.157Z,99.99
2017-02-19T21:55:50.111Z,99.99
2017-02-19T22:00:46.470Z,99.99
2017-02-19T22:05:42.856Z,99.99
2017-02-19T22:10:39.483Z,99.99
2017-02-19T22:15:36.051Z,99.99
2017-02-19T22:20:33.175Z,99.99
2017-02-19T22:25:29.428Z,99.99
2017-02-19T22:30:25.836Z,99.99
2017-02-19T22:35:22.278Z,99.99
2017-02-19T22:40:18.499Z,99.99
2017-02-19T22:45:14.925Z,99.99
2017-02-19T22:50:11.429Z,99.99
2017-02-19T22:55:07.917Z,99.99
2017-02-19T23:00:06.858Z,99.99
2017-02-19T23:05:02.688Z,99.99
2017-02-19T23:09:59.241Z,99.99
2017-02-19T23:14:55.673Z,99.99
2017-02-19T23:19:52.252Z,99.99
2017-02-19T23:24:48.609Z,99.99
2017-02-19T23:29:45.154Z,99.99
2017-02-19T23:34:41.510Z,99.99
2017-02-19T23:39:38.122Z,99.99
2017-02-19T23:44:36.924Z,99.99
2017-02-19T23:49:32.602Z,99.99
2017-02-19T23:54:29.592Z,99.99
2017-02-19T23:59:26.500Z,99.99
